createdAt,value
2018-08-22T00:00:39.104Z,1016.44
2018-08-22T00:01:48.796Z,1016.38
2018-08-22T00:02:58.519Z,1016.45
2018-08-22T00:04:08.216Z,1016.41
2018-08-22T00:05:18.184Z,1016.38
2018-08-22T00:06:27.622Z,1016.4
2018-08-22T00:07:37.330Z,1016.37
2018-08-22T00:08:47.329Z,1016.35
2018-08-22T00:09:57.555Z,1016.4
2018-08-22T00:11:07.517Z,1016.44
2018-08-22T00:12:17.463Z,1016.4
2018-08-22T00:13:27.421Z,1016.4
2018-08-22T00:14:37.117Z,1016.38
2018-08-22T00:15:46.821Z,1016.39
2018-08-22T00:16:56.531Z,1016.36
2018-08-22T00:18:06.484Z,1016.36
2018-08-22T00:19:16.430Z,1016.36
2018-08-22T00:20:26.371Z,1016.4
2018-08-22T00:21:35.817Z,1016.36
2018-08-22T00:22:45.780Z,1016.4
2018-08-22T00:23:55.736Z,1016.43
2018-08-22T00:25:05.679Z,1016.44
2018-08-22T00:26:15.450Z,1016.41
2018-08-22T00:27:25.415Z,1016.45
2018-08-22T00:28:35.120Z,1016.47
2018-08-22T00:29:45.071Z,1016.48
2018-08-22T00:30:55.031Z,1016.46
2018-08-22T00:32:04.989Z,1016.46
2018-08-22T00:33:14.945Z,1016.45
2018-08-22T00:34:24.903Z,1016.48
2018-08-22T00:35:34.855Z,1016.49
2018-08-22T00:36:44.562Z,1016.47
2018-08-22T00:37:54.517Z,1016.45
2018-08-22T00:39:04.465Z,1016.47
2018-08-22T00:40:14.434Z,1016.47
2018-08-22T00:41:24.389Z,1016.49
2018-08-22T00:42:34.390Z,1016.51
2018-08-22T00:43:44.354Z,1016.44
2018-08-22T00:44:54.057Z,1016.48
2018-08-22T00:46:03.771Z,1016.46
2018-08-22T00:47:13.469Z,1016.43
2018-08-22T00:48:23.453Z,1016.45
2018-08-22T00:49:33.422Z,1016.44
2018-08-22T00:50:43.380Z,1016.45
2018-08-22T00:51:53.345Z,1016.45
2018-08-22T00:53:03.048Z,1016.43
2018-08-22T00:54:12.748Z,1016.45
2018-08-22T00:55:22.699Z,1016.45
2018-08-22T00:56:32.406Z,1016.43
2018-08-22T00:57:42.139Z,1016.44
2018-08-22T00:58:52.337Z,1016.47
2018-08-22T01:00:02.298Z,1016.46
2018-08-22T01:01:12.257Z,1016.47
2018-08-22T01:02:21.965Z,1016.46
2018-08-22T01:03:31.917Z,1016.45
2018-08-22T01:04:41.600Z,1016.47
2018-08-22T01:05:51.293Z,1016.46
2018-08-22T01:07:01.003Z,1016.48
2018-08-22T01:08:10.703Z,1016.42
2018-08-22T01:09:20.401Z,1016.43
2018-08-22T01:10:30.365Z,1016.45
2018-08-22T01:11:40.064Z,1016.43
2018-08-22T01:12:50.045Z,1016.46
2018-08-22T01:13:59.995Z,1016.41
2018-08-22T01:15:09.935Z,1016.39
2018-08-22T01:16:19.892Z,1016.42
2018-08-22T01:17:29.593Z,1016.42
2018-08-22T01:18:39.544Z,1016.4
2018-08-22T01:19:49.573Z,1016.39
2018-08-22T01:20:59.010Z,1016.39
2018-08-22T01:22:08.722Z,1016.35
2018-08-22T01:23:18.150Z,1016.39
2018-08-22T01:24:27.848Z,1016.38
2018-08-22T01:25:37.802Z,1016.35
2018-08-22T01:26:47.500Z,1016.35
2018-08-22T01:27:57.453Z,1016.35
2018-08-22T01:29:07.403Z,1016.3
2018-08-22T01:30:17.097Z,1016.34
2018-08-22T01:31:27.057Z,1016.39
2018-08-22T01:32:37.002Z,1016.37
2018-08-22T01:33:46.700Z,1016.32
2018-08-22T01:34:56.402Z,1016.36
2018-08-22T01:36:06.096Z,1016.33
2018-08-22T01:37:15.786Z,1016.33
2018-08-22T01:38:25.222Z,1016.32
2018-08-22T01:39:35.179Z,1016.33
2018-08-22T01:40:45.131Z,1016.37
2018-08-22T01:41:55.403Z,1016.35
2018-08-22T01:43:05.597Z,1016.34
2018-08-22T01:44:15.544Z,1016.33
2018-08-22T01:45:25.496Z,1016.33
2018-08-22T01:46:35.201Z,1016.32
2018-08-22T01:47:45.168Z,1016.27
2018-08-22T01:48:55.128Z,1016.25
2018-08-22T01:50:04.585Z,1016.21
2018-08-22T01:51:14.284Z,1016.23
2018-08-22T01:52:24.239Z,1016.19
2018-08-22T01:53:34.195Z,1016.21
2018-08-22T01:54:43.894Z,1016.23
2018-08-22T01:55:53.849Z,1016.18
2018-08-22T01:57:03.811Z,1016.15
2018-08-22T01:58:13.772Z,1016.15
2018-08-22T01:59:23.754Z,1016.12
2018-08-22T02:00:33.453Z,1016.15
2018-08-22T02:01:43.405Z,1016.16
2018-08-22T02:02:53.356Z,1016.17
2018-08-22T02:04:03.307Z,1016.15
2018-08-22T02:05:13.273Z,1016.16
2018-08-22T02:06:23.228Z,1016.14
2018-08-22T02:07:33.167Z,1016.12
2018-08-22T02:08:42.867Z,1016.08
2018-08-22T02:09:52.834Z,1016.08
2018-08-22T02:11:02.786Z,1016.07
2018-08-22T02:12:12.732Z,1016.08
2018-08-22T02:13:22.683Z,1016.06
2018-08-22T02:14:32.377Z,1016.04
2018-08-22T02:15:42.338Z,1016.03
2018-08-22T02:16:52.293Z,1016.05
2018-08-22T02:18:02.249Z,1016
2018-08-22T02:19:11.953Z,1015.99
2018-08-22T02:20:21.637Z,1015.95
2018-08-22T02:21:31.586Z,1016
2018-08-22T02:22:41.538Z,1015.94
2018-08-22T02:23:51.485Z,1015.94
2018-08-22T02:25:01.223Z,1015.93
2018-08-22T02:26:11.074Z,1015.93
2018-08-22T02:27:21.034Z,1015.95
2018-08-22T02:28:30.732Z,1015.98
2018-08-22T02:29:40.427Z,1015.98
2018-08-22T02:30:50.389Z,1015.98
2018-08-22T02:32:00.336Z,1015.98
2018-08-22T02:33:09.768Z,1015.96
2018-08-22T02:34:19.713Z,1016
2018-08-22T02:35:29.399Z,1016.01
2018-08-22T02:36:39.359Z,1015.97
2018-08-22T02:37:49.311Z,1015.97
2018-08-22T02:38:59.004Z,1015.98
2018-08-22T02:40:08.976Z,1015.97
2018-08-22T02:41:18.945Z,1015.97
2018-08-22T02:42:28.635Z,1015.98
2018-08-22T02:43:38.589Z,1015.95
2018-08-22T02:44:48.536Z,1015.97
2018-08-22T02:45:58.498Z,1015.92
2018-08-22T02:47:08.203Z,1015.95
2018-08-22T02:48:17.895Z,1015.93
2018-08-22T02:49:27.596Z,1015.9
2018-08-22T02:50:37.040Z,1015.88
2018-08-22T02:51:46.472Z,1015.91
2018-08-22T02:52:56.419Z,1015.93
2018-08-22T02:54:06.113Z,1015.93
2018-08-22T02:55:16.053Z,1015.92
2018-08-22T02:56:26.003Z,1015.91
2018-08-22T02:57:35.712Z,1015.91
2018-08-22T02:58:45.675Z,1015.91
2018-08-22T02:59:55.390Z,1015.94
2018-08-22T03:01:05.339Z,1015.91
2018-08-22T03:02:15.302Z,1015.87
2018-08-22T03:03:25.255Z,1015.9
2018-08-22T03:04:34.977Z,1015.94
2018-08-22T03:05:44.967Z,1015.91
2018-08-22T03:06:54.654Z,1015.95
2018-08-22T03:08:04.605Z,1015.94
2018-08-22T03:09:14.566Z,1015.92
2018-08-22T03:10:24.261Z,1015.92
2018-08-22T03:11:34.210Z,1015.93
2018-08-22T03:12:43.912Z,1015.94
2018-08-22T03:13:53.603Z,1015.93
2018-08-22T03:15:03.547Z,1015.92
2018-08-22T03:16:13.242Z,1015.93
2018-08-22T03:17:23.194Z,1015.94
2018-08-22T03:18:33.144Z,1015.93
2018-08-22T03:19:43.112Z,1015.97
2018-08-22T03:20:53.056Z,1015.9
2018-08-22T03:22:03.004Z,1015.95
2018-08-22T03:23:12.951Z,1015.93
2018-08-22T03:24:22.915Z,1015.97
2018-08-22T03:25:32.871Z,1015.94
2018-08-22T03:26:42.923Z,1015.9
2018-08-22T03:27:52.877Z,1015.93
2018-08-22T03:29:02.826Z,1015.91
2018-08-22T03:30:12.773Z,1015.92
2018-08-22T03:31:22.742Z,1015.92
2018-08-22T03:32:32.435Z,1015.88
2018-08-22T03:33:42.128Z,1015.92
2018-08-22T03:34:51.818Z,1015.88
2018-08-22T03:36:01.519Z,1015.9
2018-08-22T03:37:11.212Z,1015.91
2018-08-22T03:38:21.159Z,1015.94
2018-08-22T03:39:31.108Z,1015.96
2018-08-22T03:40:41.064Z,1015.93
2018-08-22T03:41:51.047Z,1015.95
2018-08-22T03:43:00.998Z,1015.94
2018-08-22T03:44:10.694Z,1015.94
2018-08-22T03:45:20.408Z,1015.93
2018-08-22T03:46:30.370Z,1015.91
2018-08-22T03:47:40.305Z,1015.96
2018-08-22T03:48:50.012Z,1015.94
2018-08-22T03:49:59.970Z,1015.93
2018-08-22T03:51:09.668Z,1015.91
2018-08-22T03:52:19.626Z,1015.9
2018-08-22T03:53:29.581Z,1015.89
2018-08-22T03:54:39.545Z,1015.88
2018-08-22T03:55:49.252Z,1015.89
2018-08-22T03:56:58.958Z,1015.89
2018-08-22T03:58:08.396Z,1015.89
2018-08-22T03:59:18.360Z,1015.88
2018-08-22T04:00:28.332Z,1015.9
2018-08-22T04:01:38.312Z,1015.89
2018-08-22T04:02:48.024Z,1015.88
2018-08-22T04:03:58.003Z,1015.91
2018-08-22T04:05:07.964Z,1015.9
2018-08-22T04:06:17.928Z,1015.92
2018-08-22T04:07:27.900Z,1015.89
2018-08-22T04:08:37.871Z,1015.94
2018-08-22T04:09:47.837Z,1015.9
2018-08-22T04:10:57.283Z,1015.91
2018-08-22T04:12:07.255Z,1015.9
2018-08-22T04:13:17.218Z,1015.92
2018-08-22T04:14:26.918Z,1015.9
2018-08-22T04:15:36.888Z,1015.93
2018-08-22T04:16:46.854Z,1015.87
2018-08-22T04:17:56.814Z,1015.86
2018-08-22T04:19:06.537Z,1015.87
2018-08-22T04:20:16.511Z,1015.89
2018-08-22T04:21:26.481Z,1015.87
2018-08-22T04:22:36.435Z,1015.89
2018-08-22T04:23:45.873Z,1015.87
2018-08-22T04:24:55.831Z,1015.89
2018-08-22T04:26:05.534Z,1015.9
2018-08-22T04:27:15.490Z,1015.89
2018-08-22T04:28:25.445Z,1015.9
2018-08-22T04:29:35.424Z,1015.9
2018-08-22T04:30:45.388Z,1015.94
2018-08-22T04:31:55.624Z,1015.9
2018-08-22T04:33:05.594Z,1015.93
2018-08-22T04:34:15.549Z,1015.91
2018-08-22T04:35:25.259Z,1015.88
2018-08-22T04:36:34.975Z,1015.95
2018-08-22T04:37:45.162Z,1015.92
2018-08-22T04:38:54.893Z,1015.92
2018-08-22T04:40:04.862Z,1015.87
2018-08-22T04:41:14.568Z,1015.9
2018-08-22T04:42:24.532Z,1015.9
2018-08-22T04:43:34.499Z,1015.85
2018-08-22T04:44:44.467Z,1015.84
2018-08-22T04:45:54.184Z,1015.87
2018-08-22T04:47:03.893Z,1015.89
2018-08-22T04:48:13.896Z,1015.82
2018-08-22T04:49:24.131Z,1015.85
2018-08-22T04:50:34.094Z,1015.82
2018-08-22T04:51:44.066Z,1015.84
2018-08-22T04:52:54.025Z,1015.86
2018-08-22T04:54:03.741Z,1015.85
2018-08-22T04:55:13.457Z,1015.88
2018-08-22T04:56:23.418Z,1015.87
2018-08-22T04:57:33.114Z,1015.84
2018-08-22T04:58:43.083Z,1015.84
2018-08-22T04:59:52.783Z,1015.85
2018-08-22T05:01:02.750Z,1015.85
2018-08-22T05:02:12.706Z,1015.83
2018-08-22T05:03:22.674Z,1015.86
2018-08-22T05:04:32.628Z,1015.89
2018-08-22T05:05:42.599Z,1015.89
2018-08-22T05:06:52.621Z,1015.91
2018-08-22T05:08:02.323Z,1015.89
2018-08-22T05:09:12.052Z,1015.93
2018-08-22T05:10:22.017Z,1015.94
2018-08-22T05:11:31.983Z,1015.94
2018-08-22T05:12:41.689Z,1015.96
2018-08-22T05:13:51.424Z,1015.94
2018-08-22T05:15:01.395Z,1015.93
2018-08-22T05:16:11.114Z,1015.92
2018-08-22T05:17:21.087Z,1015.92
2018-08-22T05:18:31.042Z,1015.91
2018-08-22T05:19:40.757Z,1015.97
2018-08-22T05:20:50.721Z,1015.91
2018-08-22T05:22:00.700Z,1015.93
2018-08-22T05:23:10.427Z,1015.93
2018-08-22T05:24:20.404Z,1015.95
2018-08-22T05:25:30.376Z,1015.93
2018-08-22T05:26:39.585Z,1015.92
2018-08-22T05:27:49.568Z,1015.92
2018-08-22T05:28:59.553Z,1015.91
2018-08-22T05:30:09.589Z,1015.9
2018-08-22T05:31:19.728Z,1015.91
2018-08-22T05:32:29.697Z,1015.9
2018-08-22T05:33:39.403Z,1015.85
2018-08-22T05:34:49.348Z,1015.85
2018-08-22T05:35:59.059Z,1015.88
2018-08-22T05:37:08.509Z,1015.88
2018-08-22T05:38:18.479Z,1015.87
2018-08-22T05:39:28.449Z,1015.88
2018-08-22T05:40:38.236Z,1015.84
2018-08-22T05:41:48.594Z,1015.89
2018-08-22T05:42:58.564Z,1015.86
2018-08-22T05:44:08.538Z,1015.88
2018-08-22T05:45:18.249Z,1015.9
2018-08-22T05:46:28.226Z,1015.9
2018-08-22T05:47:38.196Z,1015.88
2018-08-22T05:48:48.171Z,1015.87
2018-08-22T05:49:58.128Z,1015.84
2018-08-22T05:51:08.108Z,1015.88
2018-08-22T05:52:17.809Z,1015.86
2018-08-22T05:53:27.799Z,1015.89
2018-08-22T05:54:37.259Z,1015.86
2018-08-22T05:55:47.231Z,1015.85
2018-08-22T05:56:56.942Z,1015.84
2018-08-22T05:58:06.923Z,1015.8
2018-08-22T05:59:16.898Z,1015.76
2018-08-22T06:00:26.354Z,1015.76
2018-08-22T06:01:36.326Z,1015.78
2018-08-22T06:02:46.290Z,1015.78
2018-08-22T06:03:56.027Z,1015.77
2018-08-22T06:05:05.740Z,1015.76
2018-08-22T06:06:14.928Z,1015.79
2018-08-22T06:07:24.897Z,1015.8
2018-08-22T06:08:34.355Z,1015.79
2018-08-22T06:09:44.330Z,1015.79
2018-08-22T06:10:54.052Z,1015.78
2018-08-22T06:12:03.769Z,1015.78
2018-08-22T06:13:13.751Z,1015.8
2018-08-22T06:14:23.948Z,1015.79
2018-08-22T06:15:33.959Z,1015.8
2018-08-22T06:16:44.209Z,1015.78
2018-08-22T06:17:54.202Z,1015.74
2018-08-22T06:19:04.218Z,1015.78
2018-08-22T06:20:14.201Z,1015.81
2018-08-22T06:21:24.166Z,1015.84
2018-08-22T06:22:34.134Z,1015.84
2018-08-22T06:23:43.840Z,1015.81
2018-08-22T06:24:53.809Z,1015.85
2018-08-22T06:26:03.543Z,1015.81
2018-08-22T06:27:13.250Z,1015.84
2018-08-22T06:28:23.220Z,1015.85
2018-08-22T06:29:33.202Z,1015.82
2018-08-22T06:30:43.190Z,1015.82
2018-08-22T06:31:52.903Z,1015.85
2018-08-22T06:33:02.733Z,1015.83
2018-08-22T06:34:13.124Z,1015.8
2018-08-22T06:35:23.101Z,1015.78
2018-08-22T06:36:33.063Z,1015.82
2018-08-22T06:37:42.787Z,1015.79
2018-08-22T06:38:52.930Z,1015.83
2018-08-22T06:40:02.922Z,1015.8
2018-08-22T06:41:12.925Z,1015.79
2018-08-22T06:42:22.898Z,1015.82
2018-08-22T06:43:32.628Z,1015.78
2018-08-22T06:44:42.603Z,1015.76
2018-08-22T06:45:52.576Z,1015.75
2018-08-22T06:47:02.593Z,1015.72
2018-08-22T06:48:12.567Z,1015.71
2018-08-22T06:49:22.556Z,1015.72
2018-08-22T06:50:32.532Z,1015.71
2018-08-22T06:51:42.515Z,1015.7
2018-08-22T06:52:52.234Z,1015.68
2018-08-22T06:54:02.201Z,1015.73
2018-08-22T06:55:12.189Z,1015.72
2018-08-22T06:56:22.169Z,1015.69
2018-08-22T06:57:31.872Z,1015.7
2018-08-22T06:58:41.856Z,1015.69
2018-08-22T06:59:51.843Z,1015.69
2018-08-22T07:01:01.826Z,1015.72
2018-08-22T07:02:11.790Z,1015.68
2018-08-22T07:03:21.514Z,1015.72
2018-08-22T07:04:31.513Z,1015.72
2018-08-22T07:05:41.498Z,1015.69
2018-08-22T07:06:51.481Z,1015.72
2018-08-22T07:08:01.480Z,1015.7
2018-08-22T07:09:11.749Z,1015.74
2018-08-22T07:10:21.466Z,1015.73
2018-08-22T07:11:31.448Z,1015.72
2018-08-22T07:12:41.425Z,1015.68
2018-08-22T07:13:51.408Z,1015.71
2018-08-22T07:15:01.385Z,1015.68
2018-08-22T07:16:11.631Z,1015.65
2018-08-22T07:17:21.606Z,1015.66
2018-08-22T07:18:31.311Z,1015.68
2018-08-22T07:19:41.303Z,1015.61
2018-08-22T07:20:51.033Z,1015.6
2018-08-22T07:22:01.533Z,1015.6
2018-08-22T07:23:11.258Z,1015.6
2018-08-22T07:24:21.017Z,1015.57
2018-08-22T07:25:30.989Z,1015.58
2018-08-22T07:26:40.957Z,1015.6
2018-08-22T07:27:50.941Z,1015.55
2018-08-22T07:29:00.657Z,1015.59
2018-08-22T07:30:10.783Z,1015.5
2018-08-22T07:31:20.904Z,1015.55
2018-08-22T07:32:30.876Z,1015.58
2018-08-22T07:33:40.855Z,1015.55
2018-08-22T07:34:50.570Z,1015.52
2018-08-22T07:36:00.031Z,1015.48
2018-08-22T07:37:09.992Z,1015.5
2018-08-22T07:38:19.952Z,1015.46
2018-08-22T07:39:29.683Z,1015.45
2018-08-22T07:40:39.680Z,1015.46
2018-08-22T07:41:49.650Z,1015.47
2018-08-22T07:42:59.410Z,1015.49
2018-08-22T07:44:09.403Z,1015.5
2018-08-22T07:45:19.380Z,1015.45
2018-08-22T07:46:29.162Z,1015.48
2018-08-22T07:47:38.881Z,1015.47
2018-08-22T07:48:48.672Z,1015.5
2018-08-22T07:49:58.653Z,1015.45
2018-08-22T07:51:08.882Z,1015.41
2018-08-22T07:52:18.860Z,1015.46
2018-08-22T07:53:28.973Z,1015.41
2018-08-22T07:54:39.025Z,1015.48
2018-08-22T07:55:48.495Z,1015.45
2018-08-22T07:56:58.453Z,1015.49
2018-08-22T07:58:08.442Z,1015.47
2018-08-22T07:59:18.179Z,1015.48
2018-08-22T08:00:27.893Z,1015.5
2018-08-22T08:01:37.643Z,1015.49
2018-08-22T08:02:47.978Z,1015.47
2018-08-22T08:03:57.968Z,1015.48
2018-08-22T08:05:07.980Z,1015.5
2018-08-22T08:06:17.825Z,1015.5
2018-08-22T08:07:27.848Z,1015.45
2018-08-22T08:08:37.626Z,1015.46
2018-08-22T08:09:48.155Z,1015.47
2018-08-22T08:10:58.254Z,1015.44
2018-08-22T08:12:08.641Z,1015.43
2018-08-22T08:13:18.594Z,1015.41
2018-08-22T08:14:28.576Z,1015.42
2018-08-22T08:15:38.591Z,1015.42
2018-08-22T08:16:48.634Z,1015.39
2018-08-22T08:17:58.664Z,1015.39
2018-08-22T08:19:08.660Z,1015.37
2018-08-22T08:20:18.635Z,1015.35
2018-08-22T08:21:28.695Z,1015.38
2018-08-22T08:22:38.432Z,1015.39
2018-08-22T08:23:48.168Z,1015.35
2018-08-22T08:24:57.903Z,1015.39
2018-08-22T08:26:07.938Z,1015.4
2018-08-22T08:27:17.978Z,1015.38
2018-08-22T08:28:27.690Z,1015.4
2018-08-22T08:29:37.411Z,1015.36
2018-08-22T08:30:47.396Z,1015.33
2018-08-22T08:31:57.370Z,1015.32
2018-08-22T08:33:07.359Z,1015.36
2018-08-22T08:34:17.083Z,1015.39
2018-08-22T08:35:26.798Z,1015.35
2018-08-22T08:36:36.830Z,1015.37
2018-08-22T08:37:46.922Z,1015.35
2018-08-22T08:38:56.721Z,1015.36
2018-08-22T08:40:06.468Z,1015.33
2018-08-22T08:41:16.448Z,1015.29
2018-08-22T08:42:26.515Z,1015.3
2018-08-22T08:43:36.280Z,1015.26
2018-08-22T08:44:46.264Z,1015.27
2018-08-22T08:45:55.982Z,1015.25
2018-08-22T08:47:05.977Z,1015.26
2018-08-22T08:48:15.718Z,1015.26
2018-08-22T08:49:25.220Z,1015.22
2018-08-22T08:50:35.476Z,1015.21
2018-08-22T08:51:45.465Z,1015.25
2018-08-22T08:52:55.510Z,1015.24
2018-08-22T08:54:05.504Z,1015.21
2018-08-22T08:55:15.529Z,1015.21
2018-08-22T08:56:25.578Z,1015.19
2018-08-22T08:57:35.576Z,1015.23
2018-08-22T08:58:45.560Z,1015.2
2018-08-22T08:59:55.547Z,1015.17
2018-08-22T09:01:05.006Z,1015.17
2018-08-22T09:02:14.752Z,1015.18
2018-08-22T09:03:24.494Z,1015.13
2018-08-22T09:04:34.472Z,1015.13
2018-08-22T09:05:44.462Z,1015.1
2018-08-22T09:06:53.948Z,1015.1
2018-08-22T09:08:03.668Z,1015.11
2018-08-22T09:09:13.643Z,1015.09
2018-08-22T09:10:23.637Z,1015.05
2018-08-22T09:11:33.629Z,1015.01
2018-08-22T09:12:43.380Z,1014.99
2018-08-22T09:13:53.369Z,1014.97
2018-08-22T09:15:03.358Z,1014.96
2018-08-22T09:16:13.114Z,1014.92
2018-08-22T09:17:22.915Z,1014.94
2018-08-22T09:18:32.333Z,1014.91
2018-08-22T09:19:42.096Z,1014.89
2018-08-22T09:20:51.856Z,1014.9
2018-08-22T09:22:02.070Z,1014.89
2018-08-22T09:23:12.152Z,1014.94
2018-08-22T09:24:22.199Z,1014.94
2018-08-22T09:25:32.003Z,1014.95
2018-08-22T09:26:42.029Z,1014.89
2018-08-22T09:27:51.516Z,1014.95
2018-08-22T09:29:01.599Z,1014.87
2018-08-22T09:30:11.597Z,1014.91
2018-08-22T09:31:21.327Z,1014.91
2018-08-22T09:32:31.103Z,1014.91
2018-08-22T09:33:41.170Z,1014.93
2018-08-22T09:34:51.581Z,1014.9
2018-08-22T09:36:01.604Z,1014.87
2018-08-22T09:37:11.608Z,1014.87
2018-08-22T09:38:21.328Z,1014.85
2018-08-22T09:39:31.159Z,1014.82
2018-08-22T09:40:41.441Z,1014.8
2018-08-22T09:41:51.177Z,1014.78
2018-08-22T09:43:01.154Z,1014.79
2018-08-22T09:44:11.115Z,1014.82
2018-08-22T09:45:20.890Z,1014.79
2018-08-22T09:46:30.928Z,1014.75
2018-08-22T09:47:41.288Z,1014.81
2018-08-22T09:48:51.325Z,1014.78
2018-08-22T09:50:01.121Z,1014.75
2018-08-22T09:51:11.327Z,1014.74
2018-08-22T09:52:20.985Z,1014.72
2018-08-22T09:53:30.764Z,1014.7
2018-08-22T09:54:40.540Z,1014.72
2018-08-22T09:55:50.908Z,1014.66
2018-08-22T09:57:00.968Z,1014.67
2018-08-22T09:58:10.988Z,1014.65
2018-08-22T09:59:21.642Z,1014.64
2018-08-22T10:00:31.415Z,1014.63
2018-08-22T10:01:41.671Z,1014.64
2018-08-22T10:02:51.668Z,1014.59
2018-08-22T10:04:01.411Z,1014.62
2018-08-22T10:05:11.398Z,1014.63
2018-08-22T10:06:21.465Z,1014.66
2018-08-22T10:07:32.134Z,1014.62
2018-08-22T10:08:41.792Z,1014.58
2018-08-22T10:09:51.820Z,1014.59
2018-08-22T10:11:02.308Z,1014.61
2018-08-22T10:12:12.303Z,1014.6
2018-08-22T10:13:22.111Z,1014.6
2018-08-22T10:14:32.108Z,1014.58
2018-08-22T10:15:42.204Z,1014.51
2018-08-22T10:16:52.204Z,1014.54
2018-08-22T10:18:02.197Z,1014.53
2018-08-22T10:19:12.257Z,1014.52
2018-08-22T10:20:22.268Z,1014.47
2018-08-22T10:21:32.280Z,1014.54
2018-08-22T10:22:42.296Z,1014.53
2018-08-22T10:23:52.318Z,1014.49
2018-08-22T10:25:02.322Z,1014.43
2018-08-22T10:26:12.307Z,1014.4
2018-08-22T10:27:22.308Z,1014.39
2018-08-22T10:28:32.594Z,1014.33
2018-08-22T10:29:42.070Z,1014.33
2018-08-22T10:30:52.094Z,1014.33
2018-08-22T10:32:01.824Z,1014.34
2018-08-22T10:33:12.055Z,1014.27
2018-08-22T10:34:22.075Z,1014.27
2018-08-22T10:35:32.056Z,1014.27
2018-08-22T10:36:41.778Z,1014.34
2018-08-22T10:37:51.799Z,1014.31
2018-08-22T10:39:01.782Z,1014.27
2018-08-22T10:40:11.762Z,1014.36
2018-08-22T10:41:21.757Z,1014.24
2018-08-22T10:42:31.739Z,1014.29
2018-08-22T10:43:41.747Z,1014.22
2018-08-22T10:44:51.747Z,1014.25
2018-08-22T10:46:01.753Z,1014.23
2018-08-22T10:47:11.739Z,1014.17
2018-08-22T10:48:21.748Z,1014.21
2018-08-22T10:49:31.826Z,1014.2
2018-08-22T10:50:41.735Z,1014.15
2018-08-22T10:51:51.964Z,1014.2
2018-08-22T10:53:02.002Z,1014.22
2018-08-22T10:54:11.998Z,1014.2
2018-08-22T10:55:21.974Z,1014.23
2018-08-22T10:56:32.096Z,1014.18
2018-08-22T10:57:42.112Z,1014.26
2018-08-22T10:58:52.121Z,1014.23
2018-08-22T11:00:02.150Z,1014.26
2018-08-22T11:01:12.167Z,1014.17
2018-08-22T11:02:21.896Z,1014.16
2018-08-22T11:03:31.640Z,1014.16
2018-08-22T11:04:41.362Z,1014.14
2018-08-22T11:05:51.385Z,1014.14
2018-08-22T11:07:01.391Z,1014.01
2018-08-22T11:08:11.408Z,1014.04
2018-08-22T11:09:21.404Z,1014.04
2018-08-22T11:10:31.409Z,1014.03
2018-08-22T11:11:41.406Z,1014.02
2018-08-22T11:12:51.420Z,1013.95
2018-08-22T11:14:01.160Z,1013.97
2018-08-22T11:15:11.167Z,1013.96
2018-08-22T11:16:21.582Z,1013.87
2018-08-22T11:17:32.892Z,1013.89
2018-08-22T11:18:51.959Z,1013.87
2018-08-22T11:20:01.947Z,1013.93
2018-08-22T11:21:11.929Z,1013.9
2018-08-22T11:22:22.019Z,1013.86
2018-08-22T11:23:32.511Z,1013.84
2018-08-22T11:24:42.246Z,1013.82
2018-08-22T11:25:51.986Z,1013.9
2018-08-22T11:27:01.973Z,1013.91
2018-08-22T11:28:12.739Z,1013.91
2018-08-22T11:29:32.043Z,1013.88
2018-08-22T11:30:42.766Z,1013.87
2018-08-22T11:31:52.492Z,1013.87
2018-08-22T11:33:02.471Z,1013.88
2018-08-22T11:34:12.450Z,1013.84
2018-08-22T11:35:22.587Z,1013.8
2018-08-22T11:36:32.322Z,1013.8
2018-08-22T11:37:42.045Z,1013.84
2018-08-22T11:38:52.035Z,1013.78
2018-08-22T11:40:02.034Z,1013.77
2018-08-22T11:41:11.775Z,1013.81
2018-08-22T11:42:21.532Z,1013.73
2018-08-22T11:43:31.267Z,1013.78
2018-08-22T11:44:41.247Z,1013.74
2018-08-22T11:45:51.232Z,1013.77
2018-08-22T11:47:01.230Z,1013.76
2018-08-22T11:48:10.970Z,1013.78
2018-08-22T11:49:20.956Z,1013.73
2018-08-22T11:50:30.938Z,1013.74
2018-08-22T11:51:40.954Z,1013.72
2018-08-22T11:52:50.684Z,1013.71
2018-08-22T11:54:00.702Z,1013.66
2018-08-22T11:55:10.690Z,1013.65
2018-08-22T11:56:20.434Z,1013.67
2018-08-22T11:57:30.411Z,1013.58
2018-08-22T11:58:40.157Z,1013.63
2018-08-22T11:59:50.149Z,1013.6
2018-08-22T12:01:00.161Z,1013.6
2018-08-22T12:02:10.140Z,1013.58
2018-08-22T12:03:20.134Z,1013.63
2018-08-22T12:04:30.122Z,1013.62
2018-08-22T12:05:40.096Z,1013.61
2018-08-22T12:06:50.093Z,1013.61
2018-08-22T12:08:00.079Z,1013.62
2018-08-22T12:09:10.061Z,1013.57
2018-08-22T12:10:19.789Z,1013.58
2018-08-22T12:11:29.597Z,1013.59
2018-08-22T12:12:39.571Z,1013.54
2018-08-22T12:13:49.313Z,1013.55
2018-08-22T12:14:59.314Z,1013.5
2018-08-22T12:16:09.109Z,1013.49
2018-08-22T12:17:19.477Z,1013.5
2018-08-22T12:18:29.464Z,1013.5
2018-08-22T12:19:39.472Z,1013.48
2018-08-22T12:20:49.478Z,1013.44
2018-08-22T12:21:59.208Z,1013.43
2018-08-22T12:23:09.025Z,1013.41
2018-08-22T12:24:19.368Z,1013.38
2018-08-22T12:25:29.351Z,1013.39
2018-08-22T12:26:39.078Z,1013.35
2018-08-22T12:27:49.082Z,1013.37
2018-08-22T12:28:58.563Z,1013.39
2018-08-22T12:30:08.556Z,1013.39
2018-08-22T12:31:18.276Z,1013.36
2018-08-22T12:32:28.261Z,1013.34
2018-08-22T12:33:38.246Z,1013.29
2018-08-22T12:34:48.227Z,1013.33
2018-08-22T12:35:58.223Z,1013.28
2018-08-22T12:37:07.943Z,1013.31
2018-08-22T12:38:17.696Z,1013.36
2018-08-22T12:39:27.693Z,1013.35
2018-08-22T12:40:37.681Z,1013.27
2018-08-22T12:41:47.669Z,1013.28
2018-08-22T12:42:57.667Z,1013.27
2018-08-22T12:44:07.398Z,1013.22
2018-08-22T12:45:17.395Z,1013.24
2018-08-22T12:46:27.385Z,1013.23
2018-08-22T12:47:37.359Z,1013.18
2018-08-22T12:48:47.360Z,1013.16
2018-08-22T12:49:57.353Z,1013.16
2018-08-22T12:51:07.100Z,1013.15
2018-08-22T12:52:16.846Z,1013.08
2018-08-22T12:53:26.578Z,1013.09
2018-08-22T12:54:36.559Z,1013.05
2018-08-22T12:55:46.296Z,1013.03
2018-08-22T12:56:56.029Z,1013.02
2018-08-22T12:58:06.075Z,1013
2018-08-22T12:59:16.066Z,1012.99
2018-08-22T13:00:26.069Z,1012.96
2018-08-22T13:01:35.831Z,1013
2018-08-22T13:02:45.600Z,1012.94
2018-08-22T13:03:55.577Z,1012.89
2018-08-22T13:05:05.583Z,1012.89
2018-08-22T13:06:15.565Z,1012.86
2018-08-22T13:07:25.548Z,1012.84
2018-08-22T13:08:35.536Z,1012.89
2018-08-22T13:09:45.514Z,1012.85
2018-08-22T13:10:55.308Z,1012.84
2018-08-22T13:12:04.894Z,1012.82
2018-08-22T13:13:14.911Z,1012.79
2018-08-22T13:14:24.645Z,1012.79
2018-08-22T13:15:34.385Z,1012.83
2018-08-22T13:16:44.379Z,1012.81
2018-08-22T13:17:54.208Z,1012.76
2018-08-22T13:19:03.948Z,1012.76
2018-08-22T13:20:13.674Z,1012.71
2018-08-22T13:21:23.414Z,1012.7
2018-08-22T13:22:33.407Z,1012.71
2018-08-22T13:23:43.373Z,1012.68
2018-08-22T13:24:53.385Z,1012.63
2018-08-22T13:26:03.167Z,1012.62
2018-08-22T13:27:13.172Z,1012.61
2018-08-22T13:28:22.659Z,1012.64
2018-08-22T13:29:32.404Z,1012.57
2018-08-22T13:30:42.142Z,1012.64
2018-08-22T13:31:52.160Z,1012.61
2018-08-22T13:33:02.163Z,1012.6
2018-08-22T13:34:12.159Z,1012.62
2018-08-22T13:35:21.636Z,1012.58
2018-08-22T13:36:31.891Z,1012.56
2018-08-22T13:37:41.617Z,1012.53
2018-08-22T13:38:51.624Z,1012.54
2018-08-22T13:40:01.589Z,1012.52
2018-08-22T13:41:11.629Z,1012.49
2018-08-22T13:42:21.662Z,1012.48
2018-08-22T13:43:31.433Z,1012.47
2018-08-22T13:44:41.437Z,1012.5
2018-08-22T13:45:51.175Z,1012.49
2018-08-22T13:47:01.200Z,1012.57
2018-08-22T13:48:10.669Z,1012.53
2018-08-22T13:49:20.403Z,1012.46
2018-08-22T13:50:30.395Z,1012.44
2018-08-22T13:51:40.406Z,1012.42
2018-08-22T13:52:50.437Z,1012.45
2018-08-22T13:54:00.436Z,1012.42
2018-08-22T13:55:10.164Z,1012.43
2018-08-22T13:56:20.173Z,1012.37
2018-08-22T13:57:30.711Z,1012.43
2018-08-22T13:58:40.182Z,1012.38
2018-08-22T13:59:50.180Z,1012.42
2018-08-22T14:01:00.171Z,1012.43
2018-08-22T14:02:10.157Z,1012.41
2018-08-22T14:03:19.932Z,1012.36
2018-08-22T14:04:29.946Z,1012.38
2018-08-22T14:05:39.957Z,1012.34
2018-08-22T14:06:49.744Z,1012.34
2018-08-22T14:07:59.753Z,1012.35
2018-08-22T14:09:09.498Z,1012.31